sensor_id;sensor_type;location;lat;lon;timestamp;P1;durP1;ratioP1;P2;durP2;ratioP2
16977;SDS011;8605;52.548;4.918;2022-12-20T00:02:47;4.30;;;2.57;;
16977;SDS011;8605;52.548;4.918;2022-12-20T00:07:52;3.77;;;2.50;;
16977;SDS011;8605;52.548;4.918;2022-12-20T00:12:54;4.93;;;3.13;;
16977;SDS011;8605;52.548;4.918;2022-12-20T00:17:57;5.23;;;2.53;;
16977;SDS011;8605;52.548;4.918;2022-12-20T00:23:02;4.57;;;3.07;;
16977;SDS011;8605;52.548;4.918;2022-12-20T00:28:05;7.10;;;2.90;;
16977;SDS011;8605;52.548;4.918;2022-12-20T00:33:08;5.67;;;3.53;;
16977;SDS011;8605;52.548;4.918;2022-12-20T00:38:12;3.53;;;2.57;;
16977;SDS011;8605;52.548;4.918;2022-12-20T00:43:15;7.07;;;2.70;;
16977;SDS011;8605;52.548;4.918;2022-12-20T00:48:18;5.87;;;2.70;;
16977;SDS011;8605;52.548;4.918;2022-12-20T00:53:22;5.17;;;2.87;;
16977;SDS011;8605;52.548;4.918;2022-12-20T00:58:27;8.60;;;2.90;;
16977;SDS011;8605;52.548;4.918;2022-12-20T01:03:30;3.83;;;2.77;;
16977;SDS011;8605;52.548;4.918;2022-12-20T01:08:35;4.50;;;2.90;;
16977;SDS011;8605;52.548;4.918;2022-12-20T01:13:39;4.03;;;2.20;;
16977;SDS011;8605;52.548;4.918;2022-12-20T01:18:43;4.27;;;2.97;;
16977;SDS011;8605;52.548;4.918;2022-12-20T01:23:48;10.90;;;3.47;;
16977;SDS011;8605;52.548;4.918;2022-12-20T01:28:51;5.50;;;2.63;;
16977;SDS011;8605;52.548;4.918;2022-12-20T01:33:55;2.97;;;2.00;;
16977;SDS011;8605;52.548;4.918;2022-12-20T01:39:00;4.17;;;3.30;;
16977;SDS011;8605;52.548;4.918;2022-12-20T01:44:05;3.37;;;2.63;;
16977;SDS011;8605;52.548;4.918;2022-12-20T01:49:29;5.07;;;3.03;;
16977;SDS011;8605;52.548;4.918;2022-12-20T01:54:36;4.10;;;2.53;;
16977;SDS011;8605;52.548;4.918;2022-12-20T01:59:42;6.33;;;2.40;;
16977;SDS011;8605;52.548;4.918;2022-12-20T02:04:46;3.27;;;2.50;;
16977;SDS011;8605;52.548;4.918;2022-12-20T02:09:51;4.87;;;3.37;;
16977;SDS011;8605;52.548;4.918;2022-12-20T02:14:58;5.30;;;3.33;;
16977;SDS011;8605;52.548;4.918;2022-12-20T02:20:12;5.10;;;2.83;;
16977;SDS011;8605;52.548;4.918;2022-12-20T02:25:34;6.50;;;3.03;;
16977;SDS011;8605;52.548;4.918;2022-12-20T02:30:46;5.00;;;3.07;;
16977;SDS011;8605;52.548;4.918;2022-12-20T02:35:50;4.97;;;2.87;;
16977;SDS011;8605;52.548;4.918;2022-12-20T02:40:55;5.00;;;2.57;;
16977;SDS011;8605;52.548;4.918;2022-12-20T02:46:01;5.83;;;3.90;;
16977;SDS011;8605;52.548;4.918;2022-12-20T02:51:04;4.23;;;3.23;;
16977;SDS011;8605;52.548;4.918;2022-12-20T02:56:09;3.77;;;2.47;;
16977;SDS011;8605;52.548;4.918;2022-12-20T03:01:17;3.17;;;2.63;;
16977;SDS011;8605;52.548;4.918;2022-12-20T03:06:24;5.23;;;2.87;;
16977;SDS011;8605;52.548;4.918;2022-12-20T03:11:27;4.57;;;2.83;;
16977;SDS011;8605;52.548;4.918;2022-12-20T03:16:31;5.63;;;3.13;;
16977;SDS011;8605;52.548;4.918;2022-12-20T03:21:34;5.17;;;2.33;;
16977;SDS011;8605;52.548;4.918;2022-12-20T03:26:37;4.20;;;2.40;;
16977;SDS011;8605;52.548;4.918;2022-12-20T03:31:44;4.13;;;2.77;;
16977;SDS011;8605;52.548;4.918;2022-12-20T03:36:48;3.30;;;2.57;;
16977;SDS011;8605;52.548;4.918;2022-12-20T03:41:51;5.47;;;2.47;;
16977;SDS011;8605;52.548;4.918;2022-12-20T03:46:55;4.97;;;3.33;;
16977;SDS011;8605;52.548;4.918;2022-12-20T03:51:58;5.47;;;2.73;;
16977;SDS011;8605;52.548;4.918;2022-12-20T03:57:01;12.20;;;2.80;;
16977;SDS011;8605;52.548;4.918;2022-12-20T04:02:06;3.90;;;2.37;;
16977;SDS011;8605;52.548;4.918;2022-12-20T04:07:09;7.13;;;3.43;;
16977;SDS011;8605;52.548;4.918;2022-12-20T04:12:17;5.13;;;2.70;;
16977;SDS011;8605;52.548;4.918;2022-12-20T04:17:21;3.53;;;3.13;;
16977;SDS011;8605;52.548;4.918;2022-12-20T04:22:25;5.53;;;2.53;;
16977;SDS011;8605;52.548;4.918;2022-12-20T04:27:35;7.80;;;2.40;;
16977;SDS011;8605;52.548;4.918;2022-12-20T04:32:43;5.60;;;2.63;;
16977;SDS011;8605;52.548;4.918;2022-12-20T04:37:46;7.30;;;2.80;;
16977;SDS011;8605;52.548;4.918;2022-12-20T04:42:51;5.20;;;2.93;;
16977;SDS011;8605;52.548;4.918;2022-12-20T04:47:55;4.60;;;2.17;;
16977;SDS011;8605;52.548;4.918;2022-12-20T04:53:12;8.43;;;3.60;;
16977;SDS011;8605;52.548;4.918;2022-12-20T04:58:32;4.20;;;2.77;;
16977;SDS011;8605;52.548;4.918;2022-12-20T05:03:39;5.33;;;3.00;;
16977;SDS011;8605;52.548;4.918;2022-12-20T05:08:43;4.00;;;2.77;;
16977;SDS011;8605;52.548;4.918;2022-12-20T05:13:47;4.07;;;2.50;;
16977;SDS011;8605;52.548;4.918;2022-12-20T05:18:54;3.53;;;2.13;;
16977;SDS011;8605;52.548;4.918;2022-12-20T05:23:57;4.97;;;3.37;;
16977;SDS011;8605;52.548;4.918;2022-12-20T05:29:42;4.53;;;2.90;;
16977;SDS011;8605;52.548;4.918;2022-12-20T05:34:46;3.20;;;2.90;;
16977;SDS011;8605;52.548;4.918;2022-12-20T05:39:51;4.40;;;3.27;;
16977;SDS011;8605;52.548;4.918;2022-12-20T05:44:56;3.87;;;3.33;;
16977;SDS011;8605;52.548;4.918;2022-12-20T05:50:06;4.07;;;3.50;;
16977;SDS011;8605;52.548;4.918;2022-12-20T05:55:41;5.73;;;3.30;;
16977;SDS011;8605;52.548;4.918;2022-12-20T06:00:45;12.40;;;3.70;;
16977;SDS011;8605;52.548;4.918;2022-12-20T06:05:50;7.40;;;3.37;;
16977;SDS011;8605;52.548;4.918;2022-12-20T06:10:59;8.47;;;4.10;;
16977;SDS011;8605;52.548;4.918;2022-12-20T06:16:08;12.70;;;4.00;;
16977;SDS011;8605;52.548;4.918;2022-12-20T06:21:13;6.37;;;4.00;;
16977;SDS011;8605;52.548;4.918;2022-12-20T06:26:16;7.27;;;3.30;;
16977;SDS011;8605;52.548;4.918;2022-12-20T06:31:23;6.87;;;4.40;;
16977;SDS011;8605;52.548;4.918;2022-12-20T06:36:29;7.77;;;4.53;;
16977;SDS011;8605;52.548;4.918;2022-12-20T06:41:33;8.83;;;5.13;;
16977;SDS011;8605;52.548;4.918;2022-12-20T06:46:37;8.00;;;4.77;;
16977;SDS011;8605;52.548;4.918;2022-12-20T06:51:42;9.63;;;4.13;;
16977;SDS011;8605;52.548;4.918;2022-12-20T06:56:46;11.30;;;3.57;;
16977;SDS011;8605;52.548;4.918;2022-12-20T07:01:50;4.50;;;3.70;;
16977;SDS011;8605;52.548;4.918;2022-12-20T07:06:54;13.07;;;3.23;;
16977;SDS011;8605;52.548;4.918;2022-12-20T07:12:00;4.40;;;2.70;;
16977;SDS011;8605;52.548;4.918;2022-12-20T07:17:04;5.97;;;3.87;;
16977;SDS011;8605;52.548;4.918;2022-12-20T07:22:09;4.97;;;3.03;;
16977;SDS011;8605;52.548;4.918;2022-12-20T07:27:12;7.33;;;3.80;;
16977;SDS011;8605;52.548;4.918;2022-12-20T07:32:15;4.27;;;2.77;;
16977;SDS011;8605;52.548;4.918;2022-12-20T07:37:20;7.33;;;3.03;;
16977;SDS011;8605;52.548;4.918;2022-12-20T07:42:23;3.73;;;2.60;;
16977;SDS011;8605;52.548;4.918;2022-12-20T07:47:34;4.23;;;3.07;;
16977;SDS011;8605;52.548;4.918;2022-12-20T07:52:39;5.93;;;2.80;;
16977;SDS011;8605;52.548;4.918;2022-12-20T07:57:45;3.73;;;2.53;;
16977;SDS011;8605;52.548;4.918;2022-12-20T08:02:51;3.70;;;2.30;;
16977;SDS011;8605;52.548;4.918;2022-12-20T08:07:58;5.50;;;2.40;;
16977;SDS011;8605;52.548;4.918;2022-12-20T08:13:01;5.93;;;3.13;;
16977;SDS011;8605;52.548;4.918;2022-12-20T08:18:05;4.40;;;2.33;;
16977;SDS011;8605;52.548;4.918;2022-12-20T08:23:09;8.93;;;2.77;;
16977;SDS011;8605;52.548;4.918;2022-12-20T08:28:12;2.93;;;2.63;;
16977;SDS011;8605;52.548;4.918;2022-12-20T08:33:16;3.33;;;2.57;;
16977;SDS011;8605;52.548;4.918;2022-12-20T08:38:20;3.83;;;1.97;;
16977;SDS011;8605;52.548;4.918;2022-12-20T08:43:23;3.30;;;2.10;;
16977;SDS011;8605;52.548;4.918;2022-12-20T08:48:26;4.33;;;2.27;;
16977;SDS011;8605;52.548;4.918;2022-12-20T08:53:31;3.60;;;1.97;;
16977;SDS011;8605;52.548;4.918;2022-12-20T08:58:35;3.20;;;2.50;;
16977;SDS011;8605;52.548;4.918;2022-12-20T09:03:38;5.17;;;2.70;;
16977;SDS011;8605;52.548;4.918;2022-12-20T09:08:43;5.33;;;2.60;;
16977;SDS011;8605;52.548;4.918;2022-12-20T09:13:47;5.07;;;2.50;;
16977;SDS011;8605;52.548;4.918;2022-12-20T09:18:51;4.00;;;2.57;;
16977;SDS011;8605;52.548;4.918;2022-12-20T09:24:06;8.47;;;2.77;;
16977;SDS011;8605;52.548;4.918;2022-12-20T09:29:10;4.50;;;2.47;;
16977;SDS011;8605;52.548;4.918;2022-12-20T09:34:13;4.40;;;2.00;;
16977;SDS011;8605;52.548;4.918;2022-12-20T09:39:18;5.63;;;3.50;;
16977;SDS011;8605;52.548;4.918;2022-12-20T09:44:23;5.33;;;2.70;;
16977;SDS011;8605;52.548;4.918;2022-12-20T09:49:28;6.83;;;2.63;;
16977;SDS011;8605;52.548;4.918;2022-12-20T09:54:36;4.93;;;2.77;;
16977;SDS011;8605;52.548;4.918;2022-12-20T09:59:41;3.33;;;2.23;;
16977;SDS011;8605;52.548;4.918;2022-12-20T10:04:50;7.57;;;3.00;;
16977;SDS011;8605;52.548;4.918;2022-12-20T10:10:05;7.83;;;3.10;;
16977;SDS011;8605;52.548;4.918;2022-12-20T10:15:19;13.97;;;2.97;;
16977;SDS011;8605;52.548;4.918;2022-12-20T10:20:27;3.60;;;2.40;;
16977;SDS011;8605;52.548;4.918;2022-12-20T10:25:37;4.17;;;2.67;;
16977;SDS011;8605;52.548;4.918;2022-12-20T10:30:42;5.87;;;3.40;;
16977;SDS011;8605;52.548;4.918;2022-12-20T10:35:45;8.17;;;2.63;;
16977;SDS011;8605;52.548;4.918;2022-12-20T10:40:59;6.40;;;3.83;;
16977;SDS011;8605;52.548;4.918;2022-12-20T10:46:27;3.77;;;2.50;;
16977;SDS011;8605;52.548;4.918;2022-12-20T10:51:37;6.43;;;2.30;;
16977;SDS011;8605;52.548;4.918;2022-12-20T10:56:41;6.53;;;2.50;;
16977;SDS011;8605;52.548;4.918;2022-12-20T11:01:56;9.40;;;2.90;;
16977;SDS011;8605;52.548;4.918;2022-12-20T11:07:00;6.20;;;3.13;;
16977;SDS011;8605;52.548;4.918;2022-12-20T11:12:11;4.83;;;2.87;;
16977;SDS011;8605;52.548;4.918;2022-12-20T11:17:21;5.33;;;2.73;;
16977;SDS011;8605;52.548;4.918;2022-12-20T11:22:32;8.43;;;4.10;;
16977;SDS011;8605;52.548;4.918;2022-12-20T11:27:43;9.00;;;3.50;;
16977;SDS011;8605;52.548;4.918;2022-12-20T11:33:00;7.33;;;3.63;;
16977;SDS011;8605;52.548;4.918;2022-12-20T11:38:29;5.10;;;3.20;;
16977;SDS011;8605;52.548;4.918;2022-12-20T11:43:48;5.10;;;2.97;;
16977;SDS011;8605;52.548;4.918;2022-12-20T11:49:33;5.67;;;2.77;;
16977;SDS011;8605;52.548;4.918;2022-12-20T11:54:52;4.80;;;3.50;;
16977;SDS011;8605;52.548;4.918;2022-12-20T12:00:01;5.23;;;4.00;;
16977;SDS011;8605;52.548;4.918;2022-12-20T12:05:14;4.37;;;3.10;;
16977;SDS011;8605;52.548;4.918;2022-12-20T12:10:20;5.57;;;3.70;;
16977;SDS011;8605;52.548;4.918;2022-12-20T12:15:27;4.47;;;3.40;;
16977;SDS011;8605;52.548;4.918;2022-12-20T12:20:35;4.27;;;3.30;;
16977;SDS011;8605;52.548;4.918;2022-12-20T12:25:42;4.67;;;3.67;;
16977;SDS011;8605;52.548;4.918;2022-12-20T12:30:47;7.83;;;3.83;;
16977;SDS011;8605;52.548;4.918;2022-12-20T12:47:12;5.97;;;4.40;;
16977;SDS011;8605;52.548;4.918;2022-12-20T12:57:53;8.80;;;4.97;;
16977;SDS011;8605;52.548;4.918;2022-12-20T13:02:58;5.77;;;4.23;;
16977;SDS011;8605;52.548;4.918;2022-12-20T13:08:14;4.47;;;3.50;;
16977;SDS011;8605;52.548;4.918;2022-12-20T13:13:20;6.93;;;4.50;;
16977;SDS011;8605;52.548;4.918;2022-12-20T13:18:27;8.13;;;4.07;;
16977;SDS011;8605;52.548;4.918;2022-12-20T13:23:31;6.30;;;5.27;;
16977;SDS011;8605;52.548;4.918;2022-12-20T13:28:43;9.43;;;4.97;;
16977;SDS011;8605;52.548;4.918;2022-12-20T13:33:49;7.20;;;4.93;;
16977;SDS011;8605;52.548;4.918;2022-12-20T13:38:54;7.60;;;4.90;;
16977;SDS011;8605;52.548;4.918;2022-12-20T13:43:59;9.37;;;5.47;;
16977;SDS011;8605;52.548;4.918;2022-12-20T13:49:06;7.87;;;5.20;;
16977;SDS011;8605;52.548;4.918;2022-12-20T13:54:14;9.33;;;4.77;;
16977;SDS011;8605;52.548;4.918;2022-12-20T13:59:29;17.40;;;5.57;;
16977;SDS011;8605;52.548;4.918;2022-12-20T14:04:39;8.67;;;5.87;;
16977;SDS011;8605;52.548;4.918;2022-12-20T14:09:44;8.83;;;5.30;;
16977;SDS011;8605;52.548;4.918;2022-12-20T14:14:49;7.93;;;5.93;;
16977;SDS011;8605;52.548;4.918;2022-12-20T14:20:11;7.33;;;5.93;;
16977;SDS011;8605;52.548;4.918;2022-12-20T14:25:17;13.43;;;6.10;;
16977;SDS011;8605;52.548;4.918;2022-12-20T14:30:26;11.47;;;4.73;;
16977;SDS011;8605;52.548;4.918;2022-12-20T14:35:33;11.43;;;5.23;;
16977;SDS011;8605;52.548;4.918;2022-12-20T14:40:39;10.37;;;5.83;;
16977;SDS011;8605;52.548;4.918;2022-12-20T14:45:42;12.83;;;6.67;;
16977;SDS011;8605;52.548;4.918;2022-12-20T14:50:51;9.00;;;5.63;;
16977;SDS011;8605;52.548;4.918;2022-12-20T14:55:55;7.93;;;6.00;;
16977;SDS011;8605;52.548;4.918;2022-12-20T15:00:59;12.30;;;7.50;;
16977;SDS011;8605;52.548;4.918;2022-12-20T15:06:06;19.07;;;7.53;;
16977;SDS011;8605;52.548;4.918;2022-12-20T15:11:36;17.53;;;8.03;;
16977;SDS011;8605;52.548;4.918;2022-12-20T15:16:46;14.83;;;7.40;;
16977;SDS011;8605;52.548;4.918;2022-12-20T15:21:51;13.77;;;8.30;;
16977;SDS011;8605;52.548;4.918;2022-12-20T15:26:55;17.17;;;8.20;;
16977;SDS011;8605;52.548;4.918;2022-12-20T15:31:59;15.83;;;8.00;;
16977;SDS011;8605;52.548;4.918;2022-12-20T15:37:10;11.13;;;7.33;;
16977;SDS011;8605;52.548;4.918;2022-12-20T15:42:19;14.77;;;8.60;;
16977;SDS011;8605;52.548;4.918;2022-12-20T15:47:23;13.10;;;8.27;;
16977;SDS011;8605;52.548;4.918;2022-12-20T15:52:27;15.33;;;8.97;;
16977;SDS011;8605;52.548;4.918;2022-12-20T15:57:30;18.73;;;9.23;;
16977;SDS011;8605;52.548;4.918;2022-12-20T16:02:34;15.80;;;8.93;;
16977;SDS011;8605;52.548;4.918;2022-12-20T16:07:39;18.87;;;10.93;;
16977;SDS011;8605;52.548;4.918;2022-12-20T16:12:42;19.40;;;11.63;;
16977;SDS011;8605;52.548;4.918;2022-12-20T16:17:45;21.53;;;11.07;;
16977;SDS011;8605;52.548;4.918;2022-12-20T16:22:50;24.70;;;14.13;;
16977;SDS011;8605;52.548;4.918;2022-12-20T16:27:53;21.87;;;13.53;;
16977;SDS011;8605;52.548;4.918;2022-12-20T16:32:56;19.37;;;9.77;;
16977;SDS011;8605;52.548;4.918;2022-12-20T16:38:01;18.17;;;9.93;;
16977;SDS011;8605;52.548;4.918;2022-12-20T16:43:08;17.93;;;9.57;;
16977;SDS011;8605;52.548;4.918;2022-12-20T16:48:15;17.20;;;9.10;;
16977;SDS011;8605;52.548;4.918;2022-12-20T16:53:20;24.40;;;9.47;;
16977;SDS011;8605;52.548;4.918;2022-12-20T16:58:23;19.97;;;9.97;;
16977;SDS011;8605;52.548;4.918;2022-12-20T17:03:46;24.00;;;10.17;;
16977;SDS011;8605;52.548;4.918;2022-12-20T17:08:51;21.93;;;8.77;;
16977;SDS011;8605;52.548;4.918;2022-12-20T17:13:54;17.30;;;9.23;;
16977;SDS011;8605;52.548;4.918;2022-12-20T17:18:58;24.47;;;14.17;;
16977;SDS011;8605;52.548;4.918;2022-12-20T17:24:02;22.87;;;11.23;;
16977;SDS011;8605;52.548;4.918;2022-12-20T17:29:07;24.87;;;13.10;;
16977;SDS011;8605;52.548;4.918;2022-12-20T17:34:13;22.17;;;12.60;;
16977;SDS011;8605;52.548;4.918;2022-12-20T17:39:20;16.30;;;9.90;;
16977;SDS011;8605;52.548;4.918;2022-12-20T17:44:23;18.80;;;10.80;;
16977;SDS011;8605;52.548;4.918;2022-12-20T17:49:27;18.63;;;9.43;;
16977;SDS011;8605;52.548;4.918;2022-12-20T17:54:31;21.67;;;11.27;;
16977;SDS011;8605;52.548;4.918;2022-12-20T17:59:40;18.73;;;10.43;;
16977;SDS011;8605;52.548;4.918;2022-12-20T18:04:43;14.07;;;7.30;;
16977;SDS011;8605;52.548;4.918;2022-12-20T18:09:48;16.33;;;10.17;;
16977;SDS011;8605;52.548;4.918;2022-12-20T18:14:51;21.77;;;10.93;;
16977;SDS011;8605;52.548;4.918;2022-12-20T18:19:54;26.23;;;13.20;;
16977;SDS011;8605;52.548;4.918;2022-12-20T18:24:59;24.77;;;12.47;;
16977;SDS011;8605;52.548;4.918;2022-12-20T18:30:04;19.77;;;10.37;;
16977;SDS011;8605;52.548;4.918;2022-12-20T18:35:08;16.13;;;9.67;;
16977;SDS011;8605;52.548;4.918;2022-12-20T18:40:13;24.50;;;11.47;;
16977;SDS011;8605;52.548;4.918;2022-12-20T18:45:16;17.87;;;9.97;;
16977;SDS011;8605;52.548;4.918;2022-12-20T18:50:19;18.63;;;9.07;;
16977;SDS011;8605;52.548;4.918;2022-12-20T18:55:23;20.43;;;10.67;;
16977;SDS011;8605;52.548;4.918;2022-12-20T19:00:25;34.10;;;19.23;;
16977;SDS011;8605;52.548;4.918;2022-12-20T19:05:31;25.07;;;11.47;;
16977;SDS011;8605;52.548;4.918;2022-12-20T19:10:35;43.87;;;18.53;;
16977;SDS011;8605;52.548;4.918;2022-12-20T19:15:38;45.83;;;21.13;;
16977;SDS011;8605;52.548;4.918;2022-12-20T19:20:41;40.87;;;16.00;;
16977;SDS011;8605;52.548;4.918;2022-12-20T19:25:45;33.30;;;14.27;;
16977;SDS011;8605;52.548;4.918;2022-12-20T19:30:48;25.73;;;13.53;;
16977;SDS011;8605;52.548;4.918;2022-12-20T19:35:51;20.27;;;10.93;;
16977;SDS011;8605;52.548;4.918;2022-12-20T19:40:58;22.83;;;12.23;;
16977;SDS011;8605;52.548;4.918;2022-12-20T19:46:02;20.90;;;12.63;;
16977;SDS011;8605;52.548;4.918;2022-12-20T19:51:06;20.03;;;10.30;;
16977;SDS011;8605;52.548;4.918;2022-12-20T19:56:12;14.87;;;8.00;;
16977;SDS011;8605;52.548;4.918;2022-12-20T20:01:17;17.47;;;10.00;;
16977;SDS011;8605;52.548;4.918;2022-12-20T20:06:22;33.53;;;14.67;;
16977;SDS011;8605;52.548;4.918;2022-12-20T20:11:27;20.20;;;11.37;;
16977;SDS011;8605;52.548;4.918;2022-12-20T20:16:30;24.00;;;12.20;;
16977;SDS011;8605;52.548;4.918;2022-12-20T20:21:33;29.53;;;14.27;;
16977;SDS011;8605;52.548;4.918;2022-12-20T20:26:40;20.10;;;11.20;;
16977;SDS011;8605;52.548;4.918;2022-12-20T20:31:43;26.50;;;12.00;;
16977;SDS011;8605;52.548;4.918;2022-12-20T20:36:46;18.73;;;8.83;;
16977;SDS011;8605;52.548;4.918;2022-12-20T20:41:50;14.37;;;8.47;;
16977;SDS011;8605;52.548;4.918;2022-12-20T20:46:53;21.60;;;12.07;;
16977;SDS011;8605;52.548;4.918;2022-12-20T20:51:56;13.97;;;8.20;;
16977;SDS011;8605;52.548;4.918;2022-12-20T20:57:00;18.07;;;8.67;;
16977;SDS011;8605;52.548;4.918;2022-12-20T21:02:03;14.30;;;7.20;;
16977;SDS011;8605;52.548;4.918;2022-12-20T21:07:06;14.60;;;8.20;;
16977;SDS011;8605;52.548;4.918;2022-12-20T21:12:10;16.87;;;7.90;;
16977;SDS011;8605;52.548;4.918;2022-12-20T21:17:13;18.60;;;7.77;;
16977;SDS011;8605;52.548;4.918;2022-12-20T21:22:16;16.27;;;8.13;;
16977;SDS011;8605;52.548;4.918;2022-12-20T21:27:20;21.77;;;8.60;;
16977;SDS011;8605;52.548;4.918;2022-12-20T21:32:23;15.43;;;8.13;;
16977;SDS011;8605;52.548;4.918;2022-12-20T21:37:28;33.37;;;11.57;;
16977;SDS011;8605;52.548;4.918;2022-12-20T21:42:32;20.90;;;8.50;;
16977;SDS011;8605;52.548;4.918;2022-12-20T21:47:35;22.43;;;9.37;;
16977;SDS011;8605;52.548;4.918;2022-12-20T21:52:38;18.17;;;8.87;;
16977;SDS011;8605;52.548;4.918;2022-12-20T21:57:43;14.40;;;8.33;;
16977;SDS011;8605;52.548;4.918;2022-12-20T22:02:48;12.73;;;6.50;;
16977;SDS011;8605;52.548;4.918;2022-12-20T22:07:51;12.67;;;6.83;;
16977;SDS011;8605;52.548;4.918;2022-12-20T22:12:55;17.77;;;7.67;;
16977;SDS011;8605;52.548;4.918;2022-12-20T22:17:58;18.07;;;7.20;;
16977;SDS011;8605;52.548;4.918;2022-12-20T22:23:01;11.10;;;5.67;;
16977;SDS011;8605;52.548;4.918;2022-12-20T22:28:06;13.73;;;5.70;;
16977;SDS011;8605;52.548;4.918;2022-12-20T22:33:08;13.33;;;7.20;;
16977;SDS011;8605;52.548;4.918;2022-12-20T22:38:11;8.20;;;5.47;;
16977;SDS011;8605;52.548;4.918;2022-12-20T22:43:15;12.90;;;6.53;;
16977;SDS011;8605;52.548;4.918;2022-12-20T22:48:18;17.73;;;6.00;;
16977;SDS011;8605;52.548;4.918;2022-12-20T22:53:21;11.83;;;4.93;;
16977;SDS011;8605;52.548;4.918;2022-12-20T22:58:26;7.23;;;4.37;;
16977;SDS011;8605;52.548;4.918;2022-12-20T23:03:30;9.03;;;5.23;;
16977;SDS011;8605;52.548;4.918;2022-12-20T23:08:34;31.27;;;5.60;;
16977;SDS011;8605;52.548;4.918;2022-12-20T23:13:39;7.53;;;4.63;;
16977;SDS011;8605;52.548;4.918;2022-12-20T23:19:00;9.77;;;4.93;;
16977;SDS011;8605;52.548;4.918;2022-12-20T23:24:03;14.13;;;5.23;;
16977;SDS011;8605;52.548;4.918;2022-12-20T23:29:08;11.27;;;5.73;;
16977;SDS011;8605;52.548;4.918;2022-12-20T23:34:11;11.37;;;5.73;;
16977;SDS011;8605;52.548;4.918;2022-12-20T23:39:14;11.83;;;5.40;;
16977;SDS011;8605;52.548;4.918;2022-12-20T23:44:18;19.57;;;6.00;;
16977;SDS011;8605;52.548;4.918;2022-12-20T23:49:21;10.10;;;5.93;;
16977;SDS011;8605;52.548;4.918;2022-12-20T23:54:24;11.87;;;5.77;;
16977;SDS011;8605;52.548;4.918;2022-12-20T23:59:28;11.80;;;5.50;;
